Time;durP1;ratioP1;P1;durP2;ratioP2;P2;SDS_P1;SDS_P2;PMS_P1;PMS_P2;Temp;Humidity;BMP_temperature;BMP_pressure;BME280_temperature;BME280_humidity;BME280_pressure;Samples;Min_cycle;Max_cycle;Signal;HPM_P1;HPM_P2
2024/01/28 00:02:19;;;;;;;17.30;2.80;;;;;;;3.53;100.00;101372.94;105867;1253;60210;-65
2024/01/28 00:05:06;;;;;;;12.00;2.70;;;;;;;3.52;100.00;101380.50;105847;1254;59392;-67
2024/01/28 00:07:53;;;;;;;16.10;3.10;;;;;;;3.52;100.00;101375.42;105977;1253;72083;-63
2024/01/28 00:10:41;;;;;;;11.20;2.30;;;;;;;3.53;100.00;101378.55;105082;1253;1003313;-64
2024/01/28 00:13:28;;;;;;;13.80;2.20;;;;;;;3.54;100.00;101383.79;105650;1253;73159;-65
2024/01/28 00:16:17;;;;;;;11.70;2.30;;;;;;;3.56;100.00;101381.28;105658;1253;60781;-65
2024/01/28 00:19:05;;;;;;;13.20;2.10;;;;;;;3.55;100.00;101375.85;105902;1253;60631;-64
2024/01/28 00:21:53;;;;;;;10.30;2.20;;;;;;;3.54;100.00;101375.54;105808;1253;71838;-66
2024/01/28 00:24:39;;;;;;;12.20;2.70;;;;;;;3.53;100.00;101369.24;105807;1257;68473;-64
2024/01/28 00:27:27;;;;;;;13.90;2.50;;;;;;;3.45;100.00;101355.09;105777;1257;74415;-65
2024/01/28 00:30:14;;;;;;;13.40;2.70;;;;;;;3.53;100.00;101362.94;105611;1260;59376;-63
2024/01/28 00:33:01;;;;;;;9.20;2.50;;;;;;;3.51;100.00;101365.08;105826;1257;59665;-64
2024/01/28 00:35:49;;;;;;;10.10;2.00;;;;;;;3.54;100.00;101376.23;105842;1252;70911;-65
2024/01/28 00:38:35;;;;;;;9.50;2.40;;;;;;;3.54;100.00;101379.41;105798;1257;66919;-64
2024/01/28 00:41:28;;;;;;;8.90;2.30;;;;;;;3.55;100.00;101379.36;105607;1254;73193;-66
2024/01/28 00:44:15;;;;;;;11.80;2.70;;;;;;;3.56;100.00;101378.66;105604;1257;60382;-65
2024/01/28 00:47:03;;;;;;;11.70;3.10;;;;;;;3.55;100.00;101381.99;105946;1252;61871;-65
2024/01/28 00:49:51;;;;;;;13.70;2.50;;;;;;;3.55;100.00;101375.86;105997;1257;71939;-66
2024/01/28 00:52:38;;;;;;;11.00;2.10;;;;;;;3.55;100.00;101373.75;105795;1253;68387;-65
2024/01/28 00:55:26;;;;;;;13.40;2.40;;;;;;;3.56;100.00;101379.88;105883;1253;72103;-64
2024/01/28 00:58:13;;;;;;;13.10;2.40;;;;;;;3.55;100.00;101374.27;105896;1253;59282;-64
2024/01/28 01:01:00;;;;;;;9.60;2.20;;;;;;;3.54;100.00;101377.63;105174;1253;1003468;-64
2024/01/28 01:03:47;;;;;;;11.40;2.20;;;;;;;3.55;100.00;101383.58;105810;1252;70770;-67
2024/01/28 01:06:37;;;;;;;11.00;2.50;;;;;;;3.55;100.00;101387.96;105831;1258;68584;-65
2024/01/28 01:09:25;;;;;;;12.90;2.70;;;;;;;3.56;100.00;101387.23;106003;1252;73921;-67
2024/01/28 01:12:12;;;;;;;13.00;2.70;;;;;;;3.58;100.00;101391.23;105852;1253;59224;-65
2024/01/28 01:15:00;;;;;;;15.20;3.40;;;;;;;3.60;100.00;101392.06;105702;1252;59588;-65
2024/01/28 01:17:49;;;;;;;15.90;2.80;;;;;;;3.62;100.00;101394.81;105751;1253;71963;-65
2024/01/28 01:20:37;;;;;;;13.80;2.60;;;;;;;3.61;100.00;101393.95;105815;1252;69355;-64
2024/01/28 01:23:24;;;;;;;13.80;3.00;;;;;;;3.61;100.00;101399.74;105800;1258;74311;-66
2024/01/28 01:26:11;;;;;;;11.10;2.70;;;;;;;3.59;100.00;101399.26;105797;1257;59205;-64
2024/01/28 01:28:58;;;;;;;12.90;3.10;;;;;;;3.58;100.00;101394.89;105823;1257;59695;-64
2024/01/28 01:31:45;;;;;;;16.60;3.00;;;;;;;3.58;100.00;101389.44;105727;1252;71785;-66
2024/01/28 01:34:32;;;;;;;10.80;2.70;;;;;;;3.58;100.00;101382.61;105542;1256;69422;-66
2024/01/28 01:37:20;;;;;;;15.10;3.20;;;;;;;3.60;100.00;101381.36;105597;1257;74124;-68
2024/01/28 01:40:08;;;;;;;17.30;3.50;;;;;;;3.61;100.00;101378.68;105506;1261;59251;-66
2024/01/28 01:42:54;;;;;;;19.00;4.60;;;;;;;3.62;100.00;101376.36;105381;1260;60709;-67
2024/01/28 01:45:44;;;;;;;14.10;3.10;;;;;;;3.61;100.00;101377.09;105634;1257;72442;-65
2024/01/28 01:48:32;;;;;;;24.00;6.30;;;;;;;3.60;100.00;101378.88;105328;1258;68028;-67
2024/01/28 01:51:21;;;;;;;35.80;8.60;;;;;;;3.61;100.00;101381.33;105698;1260;74120;-65
2024/01/28 01:54:09;;;;;;;20.90;4.90;;;;;;;3.61;100.00;101381.66;105559;1261;59550;-64
2024/01/28 01:56:56;;;;;;;26.90;7.10;;;;;;;3.62;100.00;101381.11;105438;1257;61080;-64
2024/01/28 01:59:45;;;;;;;42.90;11.60;;;;;;;3.64;100.00;101383.70;105471;1260;72696;-65
2024/01/28 02:02:33;;;;;;;20.80;4.80;;;;;;;3.65;100.00;101389.48;105638;1262;68309;-65
2024/01/28 02:05:20;;;;;;;17.10;4.70;;;;;;;3.65;100.00;101397.33;105528;1263;73248;-66
2024/01/28 02:08:07;;;;;;;15.50;4.30;;;;;;;3.66;100.00;101399.95;105804;1253;59222;-66
2024/01/28 02:10:55;;;;;;;13.40;3.80;;;;;;;3.67;100.00;101401.33;105869;1256;59733;-66
2024/01/28 02:13:42;;;;;;;15.30;3.40;;;;;;;3.68;100.00;101403.23;105933;1252;72822;-67
2024/01/28 02:16:29;;;;;;;13.30;3.40;;;;;;;3.69;100.00;101404.45;105921;1252;69359;-66
2024/01/28 02:19:17;;;;;;;11.40;2.70;;;;;;;3.69;100.00;101401.63;105906;1256;73235;-66
2024/01/28 02:22:05;;;;;;;10.30;2.20;;;;;;;3.68;100.00;101408.48;106465;1252;59827;-64
2024/01/28 02:24:53;;;;;;;12.10;2.30;;;;;;;3.68;100.00;101407.10;106936;1252;60833;-66
2024/01/28 02:27:40;;;;;;;19.30;3.20;;;;;;;3.68;100.00;101410.61;106216;1252;71483;-65
2024/01/28 02:30:28;;;;;;;14.20;2.80;;;;;;;3.69;100.00;101420.05;106048;1252;68211;-66
2024/01/28 02:41:27;;;;;;;16.80;3.50;;;;;;;3.77;100.00;101424.95;103070;1292;615779;-64
2024/01/28 02:44:14;;;;;;;18.30;4.90;;;;;;;3.78;100.00;101431.23;105036;1266;60100;-66
2024/01/28 02:47:01;;;;;;;19.80;4.50;;;;;;;3.80;100.00;101432.05;105691;1257;61186;-64
2024/01/28 02:49:49;;;;;;;32.10;10.60;;;;;;;3.83;100.00;101431.27;105603;1257;70082;-65
2024/01/28 02:52:36;;;;;;;24.60;8.40;;;;;;;3.84;100.00;101433.69;105387;1261;69227;-63
2024/01/28 02:55:23;;;;;;;42.30;12.50;;;;;;;3.85;100.00;101434.89;105654;1259;216926;-66
2024/01/28 02:58:11;;;;;;;38.00;11.30;;;;;;;3.85;100.00;101440.67;105847;1259;59401;-65
2024/01/28 03:00:58;;;;;;;41.30;11.50;;;;;;;3.83;100.00;101441.80;105688;1259;59831;-64
2024/01/28 03:03:45;;;;;;;31.40;7.90;;;;;;;3.81;100.00;101446.23;105750;1256;71960;-64
2024/01/28 03:06:32;;;;;;;21.40;5.50;;;;;;;3.79;100.00;101451.75;105993;1258;69172;-64
2024/01/28 03:09:20;;;;;;;22.50;5.40;;;;;;;3.77;100.00;101454.59;105674;1253;74221;-64
2024/01/28 03:12:06;;;;;;;20.90;4.80;;;;;;;3.75;100.00;101466.06;105726;1258;59808;-67
2024/01/28 03:14:53;;;;;;;26.90;6.40;;;;;;;3.73;100.00;101464.55;105840;1256;59282;-64
2024/01/28 03:17:41;;;;;;;23.80;5.40;;;;;;;3.73;100.00;101465.40;105837;1258;71859;-64
2024/01/28 03:20:28;;;;;;;26.10;6.70;;;;;;;3.74;100.00;101468.20;105836;1254;70005;-64
2024/01/28 03:23:15;;;;;;;23.00;6.30;;;;;;;3.75;100.00;101472.91;105728;1254;74383;-65
2024/01/28 03:26:02;;;;;;;20.70;5.20;;;;;;;3.75;100.00;101481.34;105685;1254;59233;-64
2024/01/28 03:28:49;;;;;;;18.40;4.30;;;;;;;3.74;100.00;101484.02;105655;1254;61935;-64
2024/01/28 03:31:36;;;;;;;14.60;3.90;;;;;;;3.72;100.00;101487.40;105966;1255;70802;-64
2024/01/28 03:34:24;;;;;;;11.50;2.60;;;;;;;3.71;100.00;101487.75;105948;1257;67026;-64
2024/01/28 03:37:11;;;;;;;19.60;3.00;;;;;;;3.69;100.00;101491.14;105901;1257;73664;-64
2024/01/28 03:39:58;;;;;;;19.60;3.40;;;;;;;3.70;100.00;101494.63;105774;1258;59801;-64
2024/01/28 03:42:45;;;;;;;11.20;2.60;;;;;;;3.70;100.00;101494.46;105852;1260;60894;-64
2024/01/28 03:45:32;;;;;;;14.50;2.60;;;;;;;3.68;100.00;101498.91;105790;1258;71813;-64
2024/01/28 03:48:20;;;;;;;17.70;3.20;;;;;;;3.66;100.00;101498.77;105702;1254;69238;-64
2024/01/28 03:51:07;;;;;;;13.10;2.30;;;;;;;3.66;100.00;101500.52;106034;1254;73228;-64
2024/01/28 03:53:54;;;;;;;11.10;2.50;;;;;;;3.65;100.00;101501.42;105845;1254;59250;-64
2024/01/28 03:56:40;;;;;;;15.70;2.70;;;;;;;3.63;100.00;101501.48;105700;1258;59541;-64
2024/01/28 03:59:27;;;;;;;14.50;2.50;;;;;;;3.62;100.00;101497.30;105762;1259;72857;-64
2024/01/28 04:02:15;;;;;;;15.30;2.60;;;;;;;3.62;100.00;101500.30;104131;1257;1003576;-63
2024/01/28 04:05:03;;;;;;;17.10;2.90;;;;;;;3.62;100.00;101497.30;105924;1254;73516;-64
2024/01/28 04:07:50;;;;;;;12.90;2.40;;;;;;;3.63;100.00;101496.58;105727;1258;59333;-63
2024/01/28 04:10:37;;;;;;;17.50;2.50;;;;;;;3.64;100.00;101498.84;105731;1257;60780;-65
2024/01/28 04:13:24;;;;;;;13.80;2.40;;;;;;;3.64;100.00;101493.04;105971;1255;71969;-64
2024/01/28 04:16:11;;;;;;;14.80;2.80;;;;;;;3.64;100.00;101489.70;105673;1255;69732;-65
2024/01/28 04:18:58;;;;;;;9.20;2.00;;;;;;;3.64;100.00;101492.53;105740;1259;72585;-64
2024/01/28 04:21:45;;;;;;;12.50;2.10;;;;;;;3.60;100.00;101492.27;109184;1254;59443;-64
2024/01/28 04:24:31;;;;;;;13.30;2.50;;;;;;;3.57;100.00;101494.78;109367;1254;61215;-64
2024/01/28 04:27:18;;;;;;;12.20;2.40;;;;;;;3.57;100.00;101491.11;109473;1254;69877;-64
2024/01/28 04:30:08;;;;;;;9.10;2.00;;;;;;;3.57;100.00;101488.66;109372;1253;65525;-64
2024/01/28 04:32:55;;;;;;;13.80;2.30;;;;;;;3.58;100.00;101487.92;109165;1254;73496;-64
2024/01/28 04:35:41;;;;;;;11.00;2.20;;;;;;;3.59;100.00;101488.95;109673;1250;59243;-65
2024/01/28 04:38:28;;;;;;;15.80;2.60;;;;;;;3.63;100.00;101492.02;109771;1250;58852;-64
2024/01/28 04:41:15;;;;;;;12.90;2.50;;;;;;;3.66;100.00;101493.15;109665;1249;72463;-64
2024/01/28 04:44:02;;;;;;;10.10;1.90;;;;;;;3.66;100.00;101500.54;109758;1249;67734;-63
2024/01/28 04:46:49;;;;;;;16.30;2.80;;;;;;;3.67;100.00;101509.81;109780;1250;72981;-65
2024/01/28 04:49:36;;;;;;;10.40;2.10;;;;;;;3.59;100.00;101495.27;109733;1250;57325;-64
2024/01/28 04:52:23;;;;;;;9.80;1.90;;;;;;;3.68;100.00;101509.45;109675;1250;60016;-64
2024/01/28 04:55:09;;;;;;;13.00;2.10;;;;;;;3.67;100.00;101511.21;109776;1249;72445;-64
2024/01/28 04:57:56;;;;;;;9.90;1.80;;;;;;;3.65;100.00;101510.23;109786;1250;66965;-65
2024/01/28 05:00:43;;;;;;;8.90;1.50;;;;;;;3.62;100.00;101510.81;109725;1250;73545;-66
2024/01/28 05:03:29;;;;;;;9.90;1.90;;;;;;;3.62;100.00;101514.35;109799;1250;58110;-64
2024/01/28 05:06:15;;;;;;;11.40;2.00;;;;;;;3.61;100.00;101514.54;109812;1249;58702;-65
2024/01/28 05:09:03;;;;;;;9.00;1.50;;;;;;;3.59;100.00;101519.33;109839;1250;71272;-65
2024/01/28 05:11:50;;;;;;;9.20;1.50;;;;;;;3.56;100.00;101522.20;109650;1250;67623;-65
2024/01/28 05:14:37;;;;;;;7.30;1.40;;;;;;;3.54;100.00;101517.51;109780;1250;73467;-65
2024/01/28 05:17:23;;;;;;;7.70;1.50;;;;;;;3.52;100.00;101520.91;109682;1250;58594;-65
2024/01/28 05:20:11;;;;;;;9.60;1.40;;;;;;;3.44;100.00;101523.02;109733;1250;59356;-65
2024/01/28 05:22:59;;;;;;;7.00;1.30;;;;;;;3.40;100.00;101531.54;109742;1250;72222;-67
2024/01/28 05:25:46;;;;;;;6.50;1.30;;;;;;;3.37;100.00;101528.29;109754;1249;67672;-64
2024/01/28 05:28:32;;;;;;;8.30;1.50;;;;;;;3.35;100.00;101529.20;109588;1253;73480;-66
2024/01/28 05:31:19;;;;;;;8.10;1.60;;;;;;;3.35;100.00;101527.98;109582;1251;58912;-64
2024/01/28 05:34:06;;;;;;;10.20;1.40;;;;;;;3.38;100.00;101526.69;109611;1250;61330;-66
2024/01/28 05:36:53;;;;;;;8.10;2.00;;;;;;;3.39;100.00;101530.52;109605;1251;71284;-67
2024/01/28 05:39:39;;;;;;;9.50;1.60;;;;;;;3.41;100.00;101533.79;109418;1251;67797;-65
2024/01/28 05:42:26;;;;;;;8.90;1.90;;;;;;;3.44;100.00;101538.66;109555;1253;72744;-65
2024/01/28 05:45:13;;;;;;;13.40;2.90;;;;;;;3.45;100.00;101539.50;109549;1250;57102;-64
2024/01/28 05:48:01;;;;;;;10.50;2.30;;;;;;;3.38;100.00;101528.09;109663;1250;60242;-67
2024/01/28 05:50:47;;;;;;;9.60;2.50;;;;;;;3.44;100.00;101548.31;109626;1251;71317;-67
2024/01/28 05:53:34;;;;;;;9.70;2.60;;;;;;;3.43;100.00;101552.36;109658;1250;66937;-66
2024/01/28 05:56:20;;;;;;;11.40;2.60;;;;;;;3.43;100.00;101556.04;109532;1251;73547;-65
2024/01/28 05:59:06;;;;;;;11.10;3.10;;;;;;;3.42;100.00;101562.38;109545;1251;57353;-70
2024/01/28 06:01:53;;;;;;;10.40;2.70;;;;;;;3.44;100.00;101561.98;109632;1251;60325;-66
2024/01/28 06:04:40;;;;;;;7.40;2.20;;;;;;;3.45;100.00;101566.19;109617;1251;72117;-66
2024/01/28 06:07:27;;;;;;;8.40;2.20;;;;;;;3.44;100.00;101570.06;109645;1251;68031;-65
2024/01/28 06:10:14;;;;;;;11.10;2.40;;;;;;;3.41;100.00;101575.21;109610;1251;72623;-65
2024/01/28 06:13:00;;;;;;;8.70;2.00;;;;;;;3.39;100.00;101569.46;109575;1251;57596;-66
2024/01/28 06:15:47;;;;;;;11.30;1.80;;;;;;;3.39;100.00;101567.89;109612;1251;59314;-65
2024/01/28 06:18:35;;;;;;;8.70;1.80;;;;;;;3.32;100.00;101553.15;109675;1253;71470;-65
2024/01/28 06:21:22;;;;;;;8.60;1.90;;;;;;;3.43;100.00;101568.87;109659;1251;67665;-65
2024/01/28 06:24:08;;;;;;;10.30;1.90;;;;;;;3.45;100.00;101571.44;109612;1251;73520;-66
2024/01/28 06:26:55;;;;;;;10.50;2.20;;;;;;;3.49;100.00;101572.41;109603;1251;56843;-66
2024/01/28 06:29:44;;;;;;;10.80;1.70;;;;;;;3.49;100.00;101569.59;109587;1251;59115;-66
2024/01/28 06:32:32;;;;;;;11.20;2.10;;;;;;;3.49;100.00;101568.02;109553;1251;71178;-64
2024/01/28 06:35:18;;;;;;;9.60;1.80;;;;;;;3.47;100.00;101572.25;108885;1251;1002220;-67
2024/01/28 06:38:05;;;;;;;9.60;2.40;;;;;;;3.46;100.00;101571.08;109607;1250;73623;-65
2024/01/28 06:40:51;;;;;;;10.20;2.30;;;;;;;3.46;100.00;101568.27;109727;1250;57687;-67
2024/01/28 06:43:38;;;;;;;11.80;2.10;;;;;;;3.47;100.00;101571.91;108973;1250;1002511;-66
2024/01/28 06:46:25;;;;;;;8.50;1.90;;;;;;;3.49;100.00;101572.73;109768;1249;71251;-67
2024/01/28 06:49:11;;;;;;;15.70;2.00;;;;;;;3.50;100.00;101575.53;109772;1250;65601;-68
2024/01/28 06:52:00;;;;;;;7.30;1.90;;;;;;;3.51;100.00;101580.25;109644;1250;72474;-65
2024/01/28 06:54:46;;;;;;;9.00;1.70;;;;;;;3.51;100.00;101583.74;109689;1250;58509;-66
2024/01/28 06:57:33;;;;;;;7.10;1.60;;;;;;;3.52;100.00;101591.45;108954;1250;1002457;-68
2024/01/28 07:00:20;;;;;;;8.20;2.40;;;;;;;3.52;100.00;101592.84;109666;1251;71567;-68
2024/01/28 07:03:06;;;;;;;12.70;2.50;;;;;;;3.52;100.00;101586.02;109652;1250;66519;-71
2024/01/28 07:05:55;;;;;;;11.20;2.80;;;;;;;3.54;100.00;101580.86;109689;1250;72739;-72
2024/01/28 07:08:42;;;;;;;13.90;2.50;;;;;;;3.57;100.00;101580.79;109692;1250;57580;-71
2024/01/28 07:11:28;;;;;;;17.50;2.70;;;;;;;3.61;100.00;101580.52;109736;1250;59277;-71
2024/01/28 07:14:17;;;;;;;10.80;2.00;;;;;;;3.63;100.00;101578.02;109783;1249;71379;-73
2024/01/28 07:17:03;;;;;;;10.50;2.60;;;;;;;3.65;100.00;101576.22;109543;1250;67960;-71
2024/01/28 07:19:50;;;;;;;11.80;3.50;;;;;;;3.64;100.00;101582.57;109616;1253;71212;-73
2024/01/28 07:22:36;;;;;;;12.20;2.30;;;;;;;3.64;100.00;101584.50;109682;1250;59749;-74
2024/01/28 07:25:23;;;;;;;13.00;2.30;;;;;;;3.62;100.00;101578.58;109740;1250;58708;-70
2024/01/28 07:28:09;;;;;;;11.80;2.80;;;;;;;3.63;100.00;101583.64;109631;1251;72082;-73
2024/01/28 07:30:56;;;;;;;19.00;7.90;;;;;;;3.63;100.00;101589.07;109741;1250;66592;-73
2024/01/28 07:33:43;;;;;;;10.90;2.80;;;;;;;3.65;100.00;101599.58;109660;1250;72562;-72
2024/01/28 07:36:30;;;;;;;16.20;2.40;;;;;;;3.65;100.00;101604.48;109735;1250;57387;-72
2024/01/28 07:39:17;;;;;;;13.90;2.70;;;;;;;3.67;100.00;101605.31;109705;1250;61273;-72
2024/01/28 07:42:04;;;;;;;13.80;2.10;;;;;;;3.67;100.00;101604.08;109801;1250;72888;-70
2024/01/28 07:44:51;;;;;;;9.00;2.50;;;;;;;3.70;100.00;101612.79;109760;1249;68737;-72
2024/01/28 07:47:39;;;;;;;13.80;2.20;;;;;;;3.73;100.00;101626.40;109635;1250;73692;-66
2024/01/28 07:50:29;;;;;;;9.90;1.90;;;;;;;3.75;100.00;101624.77;109744;1250;57029;-66
2024/01/28 07:53:16;;;;;;;10.50;2.00;;;;;;;3.77;100.00;101625.25;109832;1250;60365;-66
2024/01/28 07:56:03;;;;;;;9.10;2.20;;;;;;;3.79;100.00;101623.81;109808;1250;73198;-67
2024/01/28 07:58:49;;;;;;;12.10;3.00;;;;;;;3.80;100.00;101628.36;109780;1250;66262;-64
2024/01/28 08:01:36;;;;;;;11.50;2.60;;;;;;;3.82;100.00;101638.84;109713;1251;73501;-68
2024/01/28 08:04:23;;;;;;;14.30;3.10;;;;;;;3.81;100.00;101639.55;109649;1250;58708;-65
2024/01/28 08:07:10;;;;;;;11.80;2.70;;;;;;;3.83;100.00;101638.09;109732;1250;61525;-65
2024/01/28 08:09:57;;;;;;;13.90;2.90;;;;;;;3.77;100.00;101621.05;109625;1250;73380;-66
2024/01/28 08:12:44;;;;;;;15.50;2.70;;;;;;;3.83;100.00;101624.23;109650;1250;67704;-64
2024/01/28 08:15:30;;;;;;;9.50;2.40;;;;;;;3.91;100.00;101634.38;109781;1250;73341;-65
2024/01/28 08:18:17;;;;;;;11.00;2.40;;;;;;;3.95;100.00;101638.16;109767;1250;58644;-65
2024/01/28 08:21:04;;;;;;;10.90;2.50;;;;;;;3.97;100.00;101631.61;109735;1250;58872;-67
2024/01/28 08:23:51;;;;;;;10.40;2.40;;;;;;;3.96;100.00;101635.15;109702;1250;73064;-67
2024/01/28 08:26:38;;;;;;;11.90;2.50;;;;;;;3.95;100.00;101638.16;109730;1250;66737;-65
2024/01/28 08:29:25;;;;;;;13.70;3.20;;;;;;;3.99;100.00;101641.77;109722;1254;71471;-64
2024/01/28 08:32:12;;;;;;;12.40;2.40;;;;;;;4.11;100.00;101643.91;109690;1250;59284;-65
2024/01/28 08:34:58;;;;;;;16.10;2.60;;;;;;;4.19;100.00;101645.27;109714;1253;60551;-65
2024/01/28 08:37:45;;;;;;;9.10;2.20;;;;;;;4.26;100.00;101646.33;109732;1250;70667;-65
2024/01/28 08:40:31;;;;;;;11.80;2.40;;;;;;;4.29;100.00;101643.25;109685;1250;68779;-65
2024/01/28 08:43:18;;;;;;;13.10;2.70;;;;;;;4.31;100.00;101643.92;109675;1250;71244;-67
2024/01/28 08:46:05;;;;;;;10.70;2.90;;;;;;;4.31;100.00;101650.27;109769;1250;58602;-65
2024/01/28 08:48:51;;;;;;;11.10;2.50;;;;;;;4.33;100.00;101650.54;109390;1250;60353;-67
2024/01/28 08:51:40;;;;;;;11.30;3.30;;;;;;;4.35;100.00;101651.73;109648;1249;71089;-67
2024/01/28 08:54:27;;;;;;;13.50;3.10;;;;;;;4.38;100.00;101655.16;109781;1250;66285;-65
2024/01/28 08:57:13;;;;;;;13.00;2.90;;;;;;;4.39;100.00;101660.03;109621;1250;72916;-64
2024/01/28 09:00:04;;;;;;;11.60;2.80;;;;;;;4.45;100.00;101663.75;109662;1253;58514;-65
2024/01/28 09:02:51;;;;;;;13.70;3.10;;;;;;;4.51;100.00;101668.52;109688;1250;61612;-64
2024/01/28 09:05:37;;;;;;;9.80;2.60;;;;;;;4.51;100.00;101673.45;109662;1249;72307;-65
2024/01/28 09:08:25;;;;;;;12.40;2.50;;;;;;;4.54;100.00;101670.73;108120;1250;1002937;-65
2024/01/28 09:11:13;;;;;;;10.40;2.10;;;;;;;4.61;100.00;101671.24;109587;1249;71504;-67
2024/01/28 09:14:01;;;;;;;10.00;2.80;;;;;;;4.65;100.00;101679.91;109703;1250;57076;-67
2024/01/28 09:16:47;;;;;;;11.50;2.80;;;;;;;4.66;100.00;101685.36;109678;1250;58466;-67
2024/01/28 09:19:34;;;;;;;10.80;3.10;;;;;;;4.63;100.00;101687.54;109725;1250;71980;-66
2024/01/28 09:22:20;;;;;;;10.80;2.70;;;;;;;4.59;100.00;101693.61;109760;1250;67915;-66
2024/01/28 09:25:08;;;;;;;13.20;2.70;;;;;;;4.56;100.00;101695.46;109735;1250;71662;-67
2024/01/28 09:27:55;;;;;;;11.50;3.20;;;;;;;4.57;100.00;101697.01;109741;1249;57747;-64
2024/01/28 09:30:42;;;;;;;11.60;2.50;;;;;;;4.57;100.00;101696.33;109747;1250;61141;-64
2024/01/28 09:33:29;;;;;;;10.60;2.80;;;;;;;4.51;100.00;101698.40;109619;1255;70795;-66
2024/01/28 09:36:16;;;;;;;10.40;2.90;;;;;;;4.46;100.00;101703.82;109727;1250;67898;-68
2024/01/28 09:39:04;;;;;;;13.80;2.70;;;;;;;4.42;100.00;101704.95;109725;1250;72694;-66
2024/01/28 09:41:56;;;;;;;10.00;2.60;;;;;;;4.37;100.00;101711.07;109748;1250;60395;-65
2024/01/28 09:44:43;;;;;;;15.10;4.20;;;;;;;4.33;100.00;101706.77;109649;1251;61163;-64
2024/01/28 09:47:32;;;;;;;15.20;3.80;;;;;;;4.34;100.00;101703.95;109764;1251;72218;-67
2024/01/28 09:50:20;;;;;;;10.30;2.80;;;;;;;4.36;100.00;101704.59;109656;1250;68108;-67
2024/01/28 09:53:07;;;;;;;10.10;2.50;;;;;;;4.39;100.00;101703.81;109606;1251;72423;-69
2024/01/28 09:55:54;;;;;;;10.10;3.20;;;;;;;4.48;100.00;101708.34;109502;1251;58804;-65
2024/01/28 09:58:41;;;;;;;12.90;3.20;;;;;;;4.50;100.00;101712.13;109697;1251;61068;-66
2024/01/28 10:01:30;;;;;;;11.30;3.10;;;;;;;4.52;100.00;101711.55;109779;1249;72090;-67
2024/01/28 10:04:17;;;;;;;13.80;3.50;;;;;;;4.53;100.00;101708.38;109658;1251;68909;-66
2024/01/28 10:07:04;;;;;;;11.90;3.10;;;;;;;4.53;100.00;101702.58;109615;1250;72663;-67
2024/01/28 10:09:53;;;;;;;14.50;3.40;;;;;;;4.52;100.00;101699.60;109742;1251;56963;-67
2024/01/28 10:12:40;;;;;;;12.70;3.10;;;;;;;4.48;100.00;101698.13;109712;1251;58912;-68
2024/01/28 10:15:27;;;;;;;14.10;3.00;;;;;;;4.43;100.00;101701.77;109728;1250;71880;-66
2024/01/28 10:18:13;;;;;;;12.10;2.90;;;;;;;4.32;100.00;101704.34;109741;1250;68723;-67
2024/01/28 10:21:00;;;;;;;14.70;3.20;;;;;;;4.30;100.00;101699.30;109633;1251;72617;-65
2024/01/28 10:23:46;;;;;;;12.30;2.90;;;;;;;4.27;100.00;101683.73;109669;1251;57763;-66
2024/01/28 10:26:34;;;;;;;13.00;3.30;;;;;;;4.40;100.00;101698.52;109495;1251;58911;-67
2024/01/28 10:29:25;;;;;;;11.00;2.90;;;;;;;4.46;100.00;101698.89;109661;1253;70642;-67
2024/01/28 10:32:12;;;;;;;12.90;2.70;;;;;;;4.51;100.00;101702.27;109770;1251;68667;-66
2024/01/28 10:34:58;;;;;;;9.30;2.60;;;;;;;4.55;100.00;101699.19;109689;1251;73893;-65
2024/01/28 10:37:52;;;;;;;8.40;2.70;;;;;;;4.56;100.00;101697.55;109682;1249;58274;-68
2024/01/28 10:40:43;;;;;;;11.00;3.00;;;;;;;4.56;100.00;101701.27;109738;1250;60046;-65
2024/01/28 10:43:37;;;;;;;16.00;3.20;;;;;;;4.55;100.00;101705.14;109842;1251;71020;-64
2024/01/28 10:46:44;;;;;;;13.60;2.80;;;;;;;4.56;100.00;101704.26;109617;1254;69161;-66
2024/01/28 10:49:31;;;;;;;11.50;3.00;;;;;;;4.58;100.00;101703.83;109724;1250;71176;-66
2024/01/28 10:52:19;;;;;;;15.50;3.70;;;;;;;4.62;100.00;101697.58;109631;1250;57020;-65
2024/01/28 10:55:06;;;;;;;12.20;3.80;;;;;;;4.64;100.00;101698.06;109660;1251;60629;-65
2024/01/28 10:57:53;;;;;;;11.40;3.40;;;;;;;4.67;100.00;101700.61;109615;1250;70982;-64
2024/01/28 11:00:40;;;;;;;13.60;3.90;;;;;;;4.72;100.00;101700.64;109411;1250;67095;-65
2024/01/28 11:03:27;;;;;;;12.80;3.70;;;;;;;4.76;100.00;101701.77;109638;1250;72473;-66
2024/01/28 11:06:18;;;;;;;10.60;2.70;;;;;;;4.88;100.00;101703.57;108867;1251;1002682;-66
2024/01/28 11:09:05;;;;;;;10.40;2.90;;;;;;;4.97;100.00;101704.20;109725;1249;58912;-68
2024/01/28 11:11:53;;;;;;;9.00;3.30;;;;;;;5.00;100.00;101705.88;109673;1250;72093;-66
2024/01/28 11:14:39;;;;;;;11.20;2.80;;;;;;;5.07;99.55;101705.32;109741;1253;67789;-67
2024/01/28 11:17:34;;;;;;;10.00;2.80;;;;;;;5.08;98.87;101704.58;109639;1251;72769;-66
2024/01/28 11:20:31;;;;;;;10.50;3.10;;;;;;;5.12;99.76;101699.89;109628;1249;59565;-66
2024/01/28 11:23:20;;;;;;;11.30;3.00;;;;;;;5.11;99.00;101702.74;109786;1250;58796;-68
2024/01/28 11:26:15;;;;;;;10.30;2.70;;;;;;;5.13;99.88;101707.42;109644;1251;73020;-65
2024/01/28 11:29:08;;;;;;;12.50;4.00;;;;;;;5.32;99.21;101710.23;109651;1251;68854;-67
2024/01/28 11:31:55;;;;;;;11.50;3.50;;;;;;;5.45;99.63;101696.98;109585;1251;73817;-68
2024/01/28 11:34:46;;;;;;;9.90;3.30;;;;;;;5.91;98.65;101709.67;109656;1250;57908;-67
2024/01/28 11:37:52;;;;;;;12.10;3.60;;;;;;;6.18;97.19;101694.70;109640;1250;58764;-68
2024/01/28 11:40:40;;;;;;;12.20;4.50;;;;;;;6.41;95.94;101702.73;109638;1250;72940;-65
2024/01/28 11:43:26;;;;;;;11.40;3.00;;;;;;;6.43;93.12;101702.35;109716;1250;68708;-66
2024/01/28 11:46:13;;;;;;;12.10;3.40;;;;;;;6.42;92.52;101698.48;109666;1251;73131;-69
2024/01/28 11:49:01;;;;;;;11.90;3.70;;;;;;;6.50;93.43;101691.70;109729;1249;57400;-70
2024/01/28 11:51:47;;;;;;;12.90;3.10;;;;;;;6.73;91.49;101689.46;109434;1251;61175;-66
2024/01/28 11:54:35;;;;;;;9.40;2.50;;;;;;;6.82;91.69;101687.58;109741;1250;71116;-65
2024/01/28 11:57:22;;;;;;;14.20;3.50;;;;;;;6.91;88.35;101675.25;109754;1250;67940;-65
2024/01/28 12:00:13;;;;;;;10.60;3.40;;;;;;;6.85;89.03;101676.86;109700;1249;72575;-70
2024/01/28 12:03:00;;;;;;;13.70;3.10;;;;;;;6.79;89.00;101681.15;109596;1249;56953;-66
2024/01/28 12:05:46;;;;;;;10.30;3.30;;;;;;;6.70;89.25;101684.13;109440;1250;60269;-66
2024/01/28 12:08:39;;;;;;;10.90;2.90;;;;;;;6.64;89.99;101687.50;109705;1250;72348;-67
2024/01/28 12:11:28;;;;;;;10.90;3.00;;;;;;;6.54;89.11;101694.92;109598;1251;67892;-65
2024/01/28 12:14:15;;;;;;;11.80;3.20;;;;;;;6.49;89.75;101697.20;109734;1251;73543;-65
2024/01/28 12:17:01;;;;;;;12.70;3.00;;;;;;;6.45;89.46;101700.34;109649;1250;57299;-66
2024/01/28 12:19:52;;;;;;;10.30;3.00;;;;;;;6.43;89.47;101701.96;109736;1251;58717;-66
2024/01/28 12:22:40;;;;;;;11.60;3.60;;;;;;;6.82;89.30;101700.77;109550;1251;71782;-64
2024/01/28 12:25:26;;;;;;;18.10;3.90;;;;;;;7.78;86.57;101698.04;109536;1251;66469;-70
2024/01/28 12:28:13;;;;;;;16.30;5.10;;;;;;;8.28;83.90;101697.25;109633;1251;73475;-65
2024/01/28 12:31:00;;;;;;;11.50;3.20;;;;;;;8.41;79.73;101689.13;109637;1251;58606;-68
2024/01/28 12:33:48;;;;;;;11.30;2.90;;;;;;;8.07;79.84;101682.05;109585;1249;61195;-65
2024/01/28 12:36:35;;;;;;;13.80;4.30;;;;;;;8.00;82.12;101685.35;109552;1250;72147;-68
2024/01/28 12:39:21;;;;;;;11.40;3.80;;;;;;;7.92;81.05;101687.79;109659;1250;68935;-66
2024/01/28 12:42:08;;;;;;;13.50;3.50;;;;;;;7.99;80.65;101687.49;109534;1250;72700;-66
2024/01/28 12:44:54;;;;;;;10.60;3.00;;;;;;;8.37;78.29;101696.55;109568;1251;57793;-66
2024/01/28 12:47:41;;;;;;;11.50;3.50;;;;;;;8.20;77.91;101700.80;109702;1251;60101;-64
2024/01/28 12:50:28;;;;;;;10.40;2.90;;;;;;;8.35;79.98;101697.48;109627;1251;71178;-66
2024/01/28 12:53:17;;;;;;;11.10;3.30;;;;;;;8.33;78.98;101698.29;109647;1249;67672;-65